createdAt,value
2016-11-04T00:00:15.462Z,7.55
2016-11-04T00:01:15.472Z,7.56
2016-11-04T00:02:15.596Z,7.56
2016-11-04T00:03:15.321Z,7.59
2016-11-04T00:04:15.601Z,7.61
2016-11-04T00:05:15.334Z,7.59
2016-11-04T00:06:15.621Z,7.59
2016-11-04T00:07:15.483Z,7.58
2016-11-04T00:08:15.473Z,7.56
2016-11-04T00:09:15.372Z,7.59
2016-11-04T00:10:15.762Z,7.68
2016-11-04T00:11:15.488Z,7.51
2016-11-04T00:12:15.489Z,7.49
2016-11-04T00:13:15.350Z,7.64
2016-11-04T00:14:15.484Z,7.64
2016-11-04T00:15:15.785Z,7.61
2016-11-04T00:16:15.507Z,7.55
2016-11-04T00:17:15.646Z,7.51
2016-11-04T00:18:15.642Z,7.51
2016-11-04T00:19:15.371Z,7.58
2016-11-04T00:20:15.508Z,7.49
2016-11-04T00:21:15.377Z,7.55
2016-11-04T00:22:15.386Z,7.48
2016-11-04T00:23:15.508Z,7.54
2016-11-04T00:24:15.529Z,7.56
2016-11-04T00:25:15.662Z,7.48
2016-11-04T00:26:15.562Z,7.63
2016-11-04T00:27:15.673Z,7.44
2016-11-04T00:28:15.402Z,7.45
2016-11-04T00:29:15.392Z,7.52
2016-11-04T00:30:15.541Z,7.45
2016-11-04T00:31:15.676Z,7.48
2016-11-04T00:32:15.406Z,7.47
2016-11-04T00:33:15.690Z,7.44
2016-11-04T00:34:15.557Z,7.39
2016-11-04T00:35:15.563Z,7.41
2016-11-04T00:36:15.570Z,7.41
2016-11-04T00:37:15.565Z,7.49
2016-11-04T00:38:15.426Z,7.36
2016-11-04T00:39:15.561Z,7.4
2016-11-04T00:40:15.733Z,7.47
2016-11-04T00:41:15.711Z,7.51
2016-11-04T00:42:15.733Z,7.33
2016-11-04T00:43:15.721Z,7.45
2016-11-04T00:44:15.584Z,7.34
2016-11-04T00:45:15.440Z,7.41
2016-11-04T00:46:15.737Z,7.47
2016-11-04T00:47:15.703Z,7.4
2016-11-04T00:48:15.586Z,7.31
2016-11-04T00:49:15.745Z,7.33
2016-11-04T00:50:15.755Z,7.37
2016-11-04T00:51:15.616Z,7.37
2016-11-04T00:52:15.627Z,7.39
2016-11-04T00:53:15.622Z,7.23
2016-11-04T00:54:15.476Z,7.3
2016-11-04T00:55:15.657Z,7.18
2016-11-04T00:56:15.498Z,7.31
2016-11-04T00:57:15.491Z,7.26
2016-11-04T00:58:15.508Z,7.4
2016-11-04T00:59:15.630Z,7.3
2016-11-04T01:00:15.633Z,7.27
2016-11-04T01:01:15.797Z,7.21
2016-11-04T01:02:15.496Z,7.29
2016-11-04T01:03:15.888Z,7.29
2016-11-04T01:04:15.511Z,7.29
2016-11-04T01:05:15.641Z,7.21
2016-11-04T01:06:15.636Z,7.22
2016-11-04T01:07:15.648Z,7.23
2016-11-04T01:08:15.787Z,7.27
2016-11-04T01:09:15.653Z,7.27
2016-11-04T01:10:15.517Z,7.26
2016-11-04T01:11:15.788Z,7.22
2016-11-04T01:12:15.660Z,7.26
2016-11-04T01:13:15.797Z,7.15
2016-11-04T01:14:15.572Z,7.23
2016-11-04T01:15:15.802Z,7.26
2016-11-04T01:16:15.678Z,7.23
2016-11-04T01:17:15.546Z,7.22
2016-11-04T01:18:15.686Z,7.29
2016-11-04T01:19:15.946Z,7.19
2016-11-04T01:20:15.530Z,7.19
2016-11-04T01:21:15.691Z,7.15
2016-11-04T01:22:15.700Z,7.18
2016-11-04T01:23:15.668Z,7.18
2016-11-04T01:24:15.692Z,7.27
2016-11-04T01:25:15.557Z,7.26
2016-11-04T01:26:15.562Z,7.19
2016-11-04T01:27:15.719Z,7.18
2016-11-04T01:28:15.843Z,7.29
2016-11-04T01:29:15.841Z,7.16
2016-11-04T01:30:15.891Z,7.16
2016-11-04T01:31:15.717Z,7.13
2016-11-04T01:32:15.581Z,7.15
2016-11-04T01:33:15.863Z,7.12
2016-11-04T01:34:15.719Z,7.18
2016-11-04T01:35:15.854Z,7.12
2016-11-04T01:36:15.767Z,7.18
2016-11-04T01:37:15.868Z,7.11
2016-11-04T01:38:15.716Z,7.16
2016-11-04T01:39:15.742Z,7.12
2016-11-04T01:40:15.740Z,7.08
2016-11-04T01:41:15.737Z,7.08
2016-11-04T01:42:15.735Z,7.18
2016-11-04T01:43:15.729Z,7.18
2016-11-04T01:44:15.882Z,7.12
2016-11-04T01:45:15.607Z,7.12
2016-11-04T01:46:15.797Z,7.21
2016-11-04T01:47:15.884Z,7.16
2016-11-04T01:48:15.751Z,7.16
2016-11-04T01:49:15.761Z,7.22
2016-11-04T01:50:15.759Z,7.13
2016-11-04T01:51:15.905Z,7.15
2016-11-04T01:52:15.960Z,7.19
2016-11-04T01:53:15.757Z,7.11
2016-11-04T01:54:15.781Z,7.26
2016-11-04T01:55:15.629Z,7.21
2016-11-04T01:56:15.770Z,7.18
2016-11-04T01:57:15.637Z,7.26
2016-11-04T01:58:15.784Z,7.21
2016-11-04T01:59:15.932Z,7.21
2016-11-04T02:00:15.817Z,7.21
2016-11-04T02:01:15.934Z,7.21
2016-11-04T02:02:16.020Z,7.13
2016-11-04T02:03:15.657Z,7.26
2016-11-04T02:04:15.799Z,7.23
2016-11-04T02:05:15.675Z,7.22
2016-11-04T02:06:15.666Z,7.13
2016-11-04T02:07:16.063Z,7.21
2016-11-04T02:08:15.945Z,7.13
2016-11-04T02:09:15.802Z,7.22
2016-11-04T02:10:15.971Z,7.15
2016-11-04T02:11:15.810Z,7.22
2016-11-04T02:12:15.818Z,7.26
2016-11-04T02:13:15.815Z,7.23
2016-11-04T02:14:15.832Z,7.16
2016-11-04T02:15:15.839Z,7.22
2016-11-04T02:16:15.977Z,7.21
2016-11-04T02:17:15.844Z,7.19
2016-11-04T02:18:15.876Z,7.22
2016-11-04T02:19:15.846Z,7.23
2016-11-04T02:20:15.838Z,7.22
2016-11-04T02:21:15.700Z,7.26
2016-11-04T02:22:15.849Z,7.23
2016-11-04T02:23:15.962Z,7.22
2016-11-04T02:24:15.719Z,7.23
2016-11-04T02:25:15.856Z,7.26
2016-11-04T02:26:15.874Z,7.29
2016-11-04T02:27:15.731Z,7.33
2016-11-04T02:28:15.732Z,7.29
2016-11-04T02:29:15.876Z,7.29
2016-11-04T02:30:15.882Z,7.22
2016-11-04T02:31:15.877Z,7.29
2016-11-04T02:32:16.055Z,7.13
2016-11-04T02:33:15.875Z,7.22
2016-11-04T02:34:16.203Z,7.29
2016-11-04T02:35:15.908Z,7.23
2016-11-04T02:36:16.064Z,7.19
2016-11-04T02:37:15.748Z,7.19
2016-11-04T02:38:16.038Z,7.3
2016-11-04T02:39:16.176Z,7.26
2016-11-04T02:40:15.890Z,7.3
2016-11-04T02:41:15.754Z,7.21
2016-11-04T02:42:16.040Z,7.23
2016-11-04T02:43:15.910Z,7.18
2016-11-04T02:44:15.931Z,7.23
2016-11-04T02:45:15.917Z,7.27
2016-11-04T02:46:16.051Z,7.22
2016-11-04T02:47:16.070Z,7.26
2016-11-04T02:48:15.928Z,7.18
2016-11-04T02:49:15.936Z,7.29
2016-11-04T02:50:16.052Z,7.23
2016-11-04T02:51:16.086Z,7.27
2016-11-04T02:52:16.067Z,7.22
2016-11-04T02:53:15.930Z,7.19
2016-11-04T02:54:15.944Z,7.29
2016-11-04T02:55:16.053Z,7.3
2016-11-04T02:56:16.078Z,7.23
2016-11-04T02:57:15.931Z,7.27
2016-11-04T02:58:15.944Z,7.3
2016-11-04T02:59:15.942Z,7.31
2016-11-04T03:00:15.803Z,7.29
2016-11-04T03:01:15.951Z,7.29
2016-11-04T03:02:15.810Z,7.22
2016-11-04T03:03:15.955Z,7.27
2016-11-04T03:04:16.101Z,7.31
2016-11-04T03:05:15.817Z,7.23
2016-11-04T03:06:16.156Z,7.36
2016-11-04T03:07:16.106Z,7.31
2016-11-04T03:08:15.837Z,7.23
2016-11-04T03:09:16.222Z,7.21
2016-11-04T03:10:15.982Z,7.22
2016-11-04T03:11:16.237Z,7.26
2016-11-04T03:12:15.990Z,7.27
2016-11-04T03:13:16.011Z,7.29
2016-11-04T03:14:16.135Z,7.21
2016-11-04T03:15:15.988Z,7.31
2016-11-04T03:16:15.864Z,7.3
2016-11-04T03:17:16.012Z,7.22
2016-11-04T03:18:15.864Z,7.29
2016-11-04T03:19:15.869Z,7.31
2016-11-04T03:20:15.867Z,7.27
2016-11-04T03:21:16.178Z,7.26
2016-11-04T03:22:16.027Z,7.27
2016-11-04T03:23:15.882Z,7.29
2016-11-04T03:24:16.024Z,7.26
2016-11-04T03:25:16.009Z,7.23
2016-11-04T03:26:16.024Z,7.31
2016-11-04T03:27:16.017Z,7.3
2016-11-04T03:28:16.035Z,7.26
2016-11-04T03:29:16.022Z,7.29
2016-11-04T03:30:15.901Z,7.21
2016-11-04T03:31:16.052Z,7.22
2016-11-04T03:32:16.182Z,7.16
2016-11-04T03:33:16.180Z,7.26
2016-11-04T03:34:15.918Z,7.22
2016-11-04T03:35:16.053Z,7.27
2016-11-04T03:36:16.039Z,7.26
2016-11-04T03:37:16.198Z,7.26
2016-11-04T03:38:15.961Z,7.3
2016-11-04T03:39:16.205Z,7.3
2016-11-04T03:40:16.203Z,7.23
2016-11-04T03:41:16.213Z,7.27
2016-11-04T03:42:16.104Z,7.3
2016-11-04T03:43:16.259Z,7.22
2016-11-04T03:44:16.081Z,7.3
2016-11-04T03:45:15.937Z,7.3
2016-11-04T03:46:16.078Z,7.31
2016-11-04T03:47:16.082Z,7.26
2016-11-04T03:48:16.099Z,7.13
2016-11-04T03:49:16.088Z,7.22
2016-11-04T03:50:16.096Z,7.27
2016-11-04T03:51:15.968Z,7.34
2016-11-04T03:52:16.256Z,7.31
2016-11-04T03:53:16.105Z,7.26
2016-11-04T03:54:16.152Z,7.23
2016-11-04T03:55:16.270Z,7.29
2016-11-04T03:56:16.114Z,7.22
2016-11-04T03:57:15.973Z,7.31
2016-11-04T03:58:15.985Z,7.22
2016-11-04T03:59:17.021Z,7.19
2016-11-04T04:00:16.271Z,7.26
2016-11-04T04:01:15.984Z,7.23
2016-11-04T04:02:16.272Z,7.29
2016-11-04T04:03:16.126Z,7.23
2016-11-04T04:04:16.129Z,7.26
2016-11-04T04:05:15.988Z,7.22
2016-11-04T04:06:16.138Z,7.3
2016-11-04T04:07:16.119Z,7.3
2016-11-04T04:08:16.288Z,7.27
2016-11-04T04:09:16.043Z,7.29
2016-11-04T04:10:16.067Z,7.31
2016-11-04T04:11:16.004Z,7.22
2016-11-04T04:12:16.021Z,7.3
2016-11-04T04:13:16.092Z,7.26
2016-11-04T04:14:16.170Z,7.29
2016-11-04T04:15:16.279Z,7.26
2016-11-04T04:16:16.176Z,7.27
2016-11-04T04:17:16.068Z,7.3
2016-11-04T04:18:16.036Z,7.22
2016-11-04T04:19:16.126Z,7.27
2016-11-04T04:20:16.191Z,7.29
2016-11-04T04:21:16.036Z,7.23
2016-11-04T04:22:16.116Z,7.22
2016-11-04T04:23:16.195Z,7.21
2016-11-04T04:24:16.051Z,7.22
2016-11-04T04:25:16.135Z,7.31
2016-11-04T04:26:16.233Z,7.31
2016-11-04T04:27:16.125Z,7.22
2016-11-04T04:28:16.055Z,7.22
2016-11-04T04:29:16.208Z,7.22
2016-11-04T04:30:16.068Z,7.21
2016-11-04T04:31:16.250Z,7.22
2016-11-04T04:32:16.150Z,7.23
2016-11-04T04:33:16.148Z,7.22
2016-11-04T04:34:16.148Z,7.21
2016-11-04T04:35:16.259Z,7.21
2016-11-04T04:36:16.160Z,7.3
2016-11-04T04:37:16.075Z,7.27
2016-11-04T04:38:16.165Z,7.29
2016-11-04T04:39:16.172Z,7.29
2016-11-04T04:40:16.172Z,7.27
2016-11-04T04:41:16.175Z,7.19
2016-11-04T04:42:16.374Z,7.31
2016-11-04T04:43:16.184Z,7.37
2016-11-04T04:44:16.259Z,7.31
2016-11-04T04:45:16.250Z,7.26
2016-11-04T04:46:16.271Z,7.29
2016-11-04T04:47:16.376Z,7.44
2016-11-04T04:48:16.192Z,7.34
2016-11-04T04:49:16.205Z,7.36
2016-11-04T04:50:16.112Z,7.31
2016-11-04T04:51:16.191Z,7.4
2016-11-04T04:52:16.129Z,7.19
2016-11-04T04:53:16.207Z,7.31
2016-11-04T04:54:16.268Z,7.19
2016-11-04T04:55:16.131Z,7.23
2016-11-04T04:56:16.287Z,7.26
2016-11-04T04:57:16.202Z,7.27
2016-11-04T04:58:16.245Z,7.37
2016-11-04T04:59:16.312Z,7.34
2016-11-04T05:00:16.302Z,7.29
2016-11-04T05:01:16.152Z,7.21
2016-11-04T05:02:16.243Z,7.31
2016-11-04T05:03:16.427Z,7.22
2016-11-04T05:04:16.217Z,7.29
2016-11-04T05:05:16.267Z,7.26
2016-11-04T05:06:16.161Z,7.29
2016-11-04T05:07:16.314Z,7.23
2016-11-04T05:08:16.167Z,7.26
2016-11-04T05:09:16.244Z,7.3
2016-11-04T05:10:16.254Z,7.3
2016-11-04T05:11:16.252Z,7.19
2016-11-04T05:12:16.251Z,7.27
2016-11-04T05:13:16.182Z,7.34
2016-11-04T05:14:16.307Z,7.21
2016-11-04T05:15:16.249Z,7.33
2016-11-04T05:16:16.262Z,7.3
2016-11-04T05:17:16.274Z,7.29
2016-11-04T05:18:16.283Z,7.36
2016-11-04T05:19:16.573Z,7.26
2016-11-04T05:20:16.265Z,7.26
2016-11-04T05:21:16.214Z,7.3
2016-11-04T05:22:16.280Z,7.3
2016-11-04T05:23:16.360Z,7.22
2016-11-04T05:24:16.370Z,7.21
2016-11-04T05:25:16.315Z,7.26
2016-11-04T05:26:16.364Z,7.23
2016-11-04T05:27:16.304Z,7.22
2016-11-04T05:28:16.305Z,7.27
2016-11-04T05:29:16.385Z,7.27
2016-11-04T05:30:16.438Z,7.27
2016-11-04T05:31:16.231Z,7.29
2016-11-04T05:32:16.312Z,7.26
2016-11-04T05:33:16.234Z,7.3
2016-11-04T05:34:16.326Z,7.29
2016-11-04T05:35:16.433Z,7.26
2016-11-04T05:36:16.330Z,7.29
2016-11-04T05:37:16.404Z,7.34
2016-11-04T05:38:16.355Z,7.27
2016-11-04T05:39:16.336Z,7.27
2016-11-04T05:40:16.331Z,7.29
2016-11-04T05:41:16.255Z,7.31
2016-11-04T05:42:16.446Z,7.3
2016-11-04T05:43:16.273Z,7.23
2016-11-04T05:44:16.281Z,7.23
2016-11-04T05:45:16.285Z,7.31
2016-11-04T05:46:16.306Z,7.27
2016-11-04T05:47:16.381Z,7.33
2016-11-04T05:48:16.426Z,7.3
2016-11-04T05:49:16.286Z,7.22
2016-11-04T05:50:16.283Z,7.18
2016-11-04T05:51:16.677Z,7.23
2016-11-04T05:52:16.379Z,7.13
2016-11-04T05:53:16.493Z,7.23
2016-11-04T05:54:16.290Z,7.29
2016-11-04T05:55:16.299Z,7.23
2016-11-04T05:56:16.385Z,7.19
2016-11-04T05:57:16.388Z,7.27
2016-11-04T05:58:16.451Z,7.26
2016-11-04T05:59:16.373Z,7.22
2016-11-04T06:00:16.449Z,7.26
2016-11-04T06:01:16.494Z,7.26
2016-11-04T06:02:16.361Z,7.26
2016-11-04T06:03:16.394Z,7.19
2016-11-04T06:04:16.325Z,7.26
2016-11-04T06:05:16.341Z,7.26
2016-11-04T06:06:16.491Z,7.22
2016-11-04T06:07:16.540Z,7.22
2016-11-04T06:08:16.418Z,7.27
2016-11-04T06:09:16.414Z,7.23
2016-11-04T06:10:16.330Z,7.22
2016-11-04T06:11:16.420Z,7.22
2016-11-04T06:12:16.339Z,7.18
2016-11-04T06:13:16.508Z,7.22
2016-11-04T06:14:16.360Z,7.26
2016-11-04T06:15:16.355Z,7.22
2016-11-04T06:16:16.440Z,7.22
2016-11-04T06:17:16.441Z,7.22
2016-11-04T06:18:16.570Z,7.13
2016-11-04T06:19:16.375Z,7.26
2016-11-04T06:20:16.442Z,7.21
2016-11-04T06:21:16.440Z,7.13
2016-11-04T06:22:16.362Z,7.18
2016-11-04T06:23:16.581Z,7.18
2016-11-04T06:24:16.471Z,7.26
2016-11-04T06:25:16.470Z,7.15
2016-11-04T06:26:16.453Z,7.16
2016-11-04T06:27:16.411Z,7.09
2016-11-04T06:28:16.401Z,7.11
2016-11-04T06:29:16.540Z,7.21
2016-11-04T06:30:16.396Z,7.19
2016-11-04T06:31:16.396Z,7.19
2016-11-04T06:32:16.390Z,7.19
2016-11-04T06:33:16.483Z,7.18
2016-11-04T06:34:16.445Z,7.26
2016-11-04T06:35:16.484Z,7.22
2016-11-04T06:36:16.568Z,7.29
2016-11-04T06:37:16.419Z,7.22
2016-11-04T06:38:16.410Z,7.23
2016-11-04T06:39:16.706Z,7.21
2016-11-04T06:40:16.573Z,7.21
2016-11-04T06:41:16.508Z,7.18
2016-11-04T06:42:16.516Z,7.19
2016-11-04T06:43:16.438Z,7.26
2016-11-04T06:44:16.434Z,7.09
2016-11-04T06:45:16.524Z,7.16
2016-11-04T06:46:16.548Z,7.18
2016-11-04T06:47:16.529Z,7.21
2016-11-04T06:48:16.605Z,7.19
2016-11-04T06:49:16.449Z,7.22
2016-11-04T06:50:16.638Z,7.26
2016-11-04T06:51:16.462Z,7.4
2016-11-04T06:52:16.457Z,7.22
2016-11-04T06:53:16.530Z,7.26
2016-11-04T06:54:16.558Z,7.3
2016-11-04T06:55:16.652Z,7.23
2016-11-04T06:56:16.548Z,7.18
2016-11-04T06:57:16.577Z,7.3
2016-11-04T06:58:16.632Z,7.21
2016-11-04T06:59:16.463Z,7.23
2016-11-04T07:00:17.246Z,7.26
2016-11-04T07:01:16.487Z,7.23
2016-11-04T07:02:16.653Z,7.22
2016-11-04T07:03:16.568Z,7.23
2016-11-04T07:04:16.513Z,7.23
2016-11-04T07:05:16.573Z,7.33
2016-11-04T07:06:16.707Z,7.22
2016-11-04T07:07:16.606Z,7.26
2016-11-04T07:08:16.568Z,7.29
2016-11-04T07:09:16.588Z,7.27
2016-11-04T07:10:16.583Z,7.27
2016-11-04T07:11:16.635Z,7.27
2016-11-04T07:12:16.665Z,7.18
2016-11-04T07:13:16.587Z,7.33
2016-11-04T07:14:16.596Z,7.33
2016-11-04T07:15:16.533Z,7.26
2016-11-04T07:16:16.628Z,7.4
2016-11-04T07:17:16.908Z,7.36
2016-11-04T07:18:16.696Z,7.34
2016-11-04T07:19:16.688Z,7.21
2016-11-04T07:20:16.619Z,7.3
2016-11-04T07:21:16.633Z,7.23
2016-11-04T07:22:16.661Z,7.22
2016-11-04T07:23:16.629Z,7.26
2016-11-04T07:24:17.167Z,7.33
2016-11-04T07:25:16.697Z,7.18
2016-11-04T07:26:16.723Z,7.34
2016-11-04T07:27:16.655Z,7.36
2016-11-04T07:28:16.568Z,7.34
2016-11-04T07:29:16.577Z,7.21
2016-11-04T07:30:16.636Z,7.34
2016-11-04T07:31:16.555Z,7.3
2016-11-04T07:32:16.684Z,7.31
2016-11-04T07:33:16.734Z,7.21
2016-11-04T07:34:16.574Z,7.34
2016-11-04T07:35:16.665Z,7.4
2016-11-04T07:36:16.636Z,7.19
2016-11-04T07:37:16.585Z,7.34
2016-11-04T07:38:16.684Z,7.39
2016-11-04T07:39:16.658Z,7.34
2016-11-04T07:40:16.670Z,7.22
2016-11-04T07:41:16.665Z,7.33
2016-11-04T07:42:16.745Z,7.48
2016-11-04T07:43:16.815Z,7.41
2016-11-04T07:44:16.676Z,7.34
2016-11-04T07:45:16.662Z,7.34
2016-11-04T07:46:16.780Z,7.27
2016-11-04T07:47:16.593Z,7.4
2016-11-04T07:48:16.624Z,7.23
2016-11-04T07:49:16.755Z,7.29
2016-11-04T07:50:16.716Z,7.37
2016-11-04T07:51:16.757Z,7.41
2016-11-04T07:52:16.703Z,7.45
2016-11-04T07:53:16.785Z,7.41
2016-11-04T07:54:16.803Z,7.45
2016-11-04T07:55:16.782Z,7.49
2016-11-04T07:56:16.628Z,7.47
2016-11-04T07:57:16.714Z,7.48
2016-11-04T07:58:16.650Z,7.48
2016-11-04T07:59:16.912Z,7.56
2016-11-04T08:00:16.723Z,7.47
2016-11-04T08:01:16.722Z,7.52
2016-11-04T08:02:16.717Z,7.49
2016-11-04T08:03:16.645Z,7.59
2016-11-04T08:04:16.738Z,7.55
2016-11-04T08:05:16.798Z,7.55
2016-11-04T08:06:16.907Z,7.56
2016-11-04T08:07:16.736Z,7.54
2016-11-04T08:08:16.815Z,7.52
2016-11-04T08:09:16.653Z,7.58
2016-11-04T08:10:16.770Z,7.61
2016-11-04T08:11:16.841Z,7.56
2016-11-04T08:12:16.685Z,7.55
2016-11-04T08:13:16.754Z,7.7
2016-11-04T08:14:16.751Z,7.68
2016-11-04T08:15:16.921Z,7.71
2016-11-04T08:16:16.841Z,7.73
2016-11-04T08:17:16.867Z,7.64
2016-11-04T08:18:16.873Z,7.64
2016-11-04T08:19:16.778Z,7.68
2016-11-04T08:20:16.794Z,7.75
2016-11-04T08:21:16.696Z,7.78
2016-11-04T08:22:16.786Z,7.74
2016-11-04T08:23:16.714Z,7.82
2016-11-04T08:24:16.871Z,7.83
2016-11-04T08:25:16.790Z,7.78
2016-11-04T08:26:16.699Z,7.78
2016-11-04T08:27:16.796Z,7.82
2016-11-04T08:28:16.785Z,7.8
2016-11-04T08:29:17.438Z,7.85
2016-11-04T08:30:16.735Z,7.86
2016-11-04T08:31:17.225Z,7.85
2016-11-04T08:32:16.866Z,7.82
2016-11-04T08:33:16.817Z,7.86
2016-11-04T08:34:16.799Z,7.86
2016-11-04T08:35:16.810Z,7.92
2016-11-04T08:36:16.957Z,7.86
2016-11-04T08:37:16.820Z,7.83
2016-11-04T08:38:16.895Z,7.89
2016-11-04T08:39:16.899Z,7.95
2016-11-04T08:40:16.904Z,7.98
2016-11-04T08:41:16.746Z,7.96
2016-11-04T08:42:16.839Z,7.98
2016-11-04T08:43:16.852Z,8.01
2016-11-04T08:44:16.768Z,7.99
2016-11-04T08:45:16.937Z,8.07
2016-11-04T08:46:16.941Z,8.11
2016-11-04T08:47:17.729Z,8.07
2016-11-04T08:48:16.860Z,8.09
2016-11-04T08:49:16.891Z,8.1
2016-11-04T08:50:16.796Z,8.06
2016-11-04T08:51:16.976Z,7.99
2016-11-04T08:52:17.050Z,8.07
2016-11-04T08:53:16.801Z,8.1
2016-11-04T08:54:16.931Z,7.99
2016-11-04T08:55:16.976Z,8.14
2016-11-04T08:56:16.831Z,8.13
2016-11-04T08:57:17.068Z,8.19
2016-11-04T08:58:17.021Z,8.14
2016-11-04T08:59:17.014Z,8.22
2016-11-04T09:00:17.578Z,8.06
2016-11-04T09:01:16.870Z,8.11
2016-11-04T09:02:17.045Z,8.19
2016-11-04T09:03:17.082Z,8.14
2016-11-04T09:04:16.952Z,8.06
2016-11-04T09:05:16.932Z,8.13
2016-11-04T09:06:17.009Z,8.16
2016-11-04T09:07:16.843Z,8.22
2016-11-04T09:08:16.938Z,8.28
2016-11-04T09:09:16.842Z,8.32
2016-11-04T09:10:17.088Z,8.28
2016-11-04T09:11:16.941Z,8.22
2016-11-04T09:12:17.025Z,8.36
2016-11-04T09:13:16.929Z,8.32
2016-11-04T09:14:17.000Z,8.21
2016-11-04T09:15:16.994Z,8.35
2016-11-04T09:16:16.928Z,8.24
2016-11-04T09:17:16.944Z,8.32
2016-11-04T09:18:16.874Z,8.28
2016-11-04T09:19:17.054Z,8.4
2016-11-04T09:20:16.979Z,8.43
2016-11-04T09:21:16.898Z,8.46
2016-11-04T09:22:16.959Z,8.42
2016-11-04T09:23:17.049Z,8.35
2016-11-04T09:24:17.077Z,8.4
2016-11-04T09:25:16.957Z,8.44
2016-11-04T09:26:16.943Z,8.35
2016-11-04T09:27:16.885Z,8.32
2016-11-04T09:28:17.074Z,8.25
2016-11-04T09:29:16.995Z,8.22
2016-11-04T09:30:16.980Z,8.35
2016-11-04T09:31:16.979Z,8.42
2016-11-04T09:32:17.018Z,8.5
2016-11-04T09:33:16.996Z,8.6
2016-11-04T09:34:17.121Z,8.62
2016-11-04T09:35:17.223Z,8.47
2016-11-04T09:36:17.002Z,8.46
2016-11-04T09:37:17.102Z,8.49
2016-11-04T09:38:16.920Z,8.62
2016-11-04T09:39:16.965Z,8.64
2016-11-04T09:40:17.049Z,8.74
2016-11-04T09:41:16.998Z,8.85
2016-11-04T09:42:17.021Z,8.98
2016-11-04T09:43:16.940Z,8.98
2016-11-04T09:44:17.097Z,9.03
2016-11-04T09:45:17.145Z,9.12
2016-11-04T09:46:17.091Z,9.11
2016-11-04T09:47:17.061Z,9.21
2016-11-04T09:48:17.083Z,9.3
2016-11-04T09:49:17.107Z,9.23
2016-11-04T09:50:17.042Z,9.34
2016-11-04T09:51:17.091Z,9.21
2016-11-04T09:52:17.061Z,9.3
2016-11-04T09:53:16.945Z,9.52
2016-11-04T09:54:17.045Z,9.39
2016-11-04T09:55:16.985Z,9.5
2016-11-04T09:56:17.008Z,9.6
2016-11-04T09:57:17.058Z,9.63
2016-11-04T09:58:17.051Z,9.67
2016-11-04T09:59:17.090Z,9.74
2016-11-04T10:00:17.131Z,9.7
2016-11-04T10:01:17.065Z,9.96
2016-11-04T10:02:17.057Z,10.07
2016-11-04T10:03:23.457Z,9.96
2016-11-04T10:04:16.975Z,10
2016-11-04T10:05:17.077Z,9.96
2016-11-04T10:06:17.055Z,9.92
2016-11-04T10:07:17.408Z,10.02
2016-11-04T10:08:17.202Z,10.21
2016-11-04T10:09:17.110Z,10.44
2016-11-04T10:10:17.123Z,10.58
2016-11-04T10:11:17.104Z,10.8
2016-11-04T10:12:17.137Z,10.76
2016-11-04T10:13:17.194Z,10.9
2016-11-04T10:14:17.102Z,10.97
2016-11-04T10:15:17.092Z,10.9
2016-11-04T10:16:17.029Z,10.94
2016-11-04T10:17:17.244Z,10.9
2016-11-04T10:18:18.058Z,10.9
2016-11-04T10:19:17.112Z,10.79
2016-11-04T10:20:17.140Z,10.83
2016-11-04T10:21:17.071Z,10.75
2016-11-04T10:22:17.853Z,10.83
2016-11-04T10:23:17.265Z,10.92
2016-11-04T10:24:17.110Z,11.13
2016-11-04T10:25:17.132Z,11.16
2016-11-04T10:26:17.269Z,11.16
2016-11-04T10:27:17.136Z,11.13
2016-11-04T10:28:17.167Z,11.21
2016-11-04T10:29:17.098Z,10.73
2016-11-04T10:30:17.134Z,10.46
2016-11-04T10:31:17.200Z,10.31
2016-11-04T10:32:17.150Z,10.59
2016-11-04T10:33:17.266Z,10.75
2016-11-04T10:34:17.198Z,11.03
2016-11-04T10:35:17.094Z,10.83
2016-11-04T10:36:17.209Z,10.85
2016-11-04T10:37:17.179Z,11.1
2016-11-04T10:38:17.094Z,11.26
2016-11-04T10:39:17.382Z,11.31
2016-11-04T10:40:17.202Z,11.1
2016-11-04T10:41:18.204Z,11.21
2016-11-04T10:42:17.368Z,11.34
2016-11-04T10:43:17.180Z,11.42
2016-11-04T10:44:17.249Z,11.2
2016-11-04T10:45:17.315Z,11.26
2016-11-04T10:46:17.142Z,11.12
2016-11-04T10:47:17.652Z,10.97
2016-11-04T10:48:17.286Z,10.92
2016-11-04T10:49:17.323Z,10.8
2016-11-04T10:50:17.211Z,11.05
2016-11-04T10:51:17.244Z,11.21
2016-11-04T10:52:18.135Z,11.12
2016-11-04T10:53:17.774Z,11.05
2016-11-04T10:54:18.047Z,11.24
2016-11-04T10:55:17.622Z,10.91
2016-11-04T10:56:17.648Z,10.61
2016-11-04T10:57:17.488Z,10.8
2016-11-04T10:58:17.253Z,11.13
2016-11-04T10:59:17.220Z,10.84
2016-11-04T11:00:17.368Z,11.06
2016-11-04T11:01:17.255Z,11.13
2016-11-04T11:02:17.311Z,10.95
2016-11-04T11:03:17.395Z,11.1
2016-11-04T11:04:19.363Z,11.26
2016-11-04T11:05:17.483Z,11.51
2016-11-04T11:06:17.401Z,11.39
2016-11-04T11:07:19.685Z,10.95
2016-11-04T11:08:17.614Z,11.03
2016-11-04T11:09:17.418Z,10.95
2016-11-04T11:10:17.443Z,11.24
2016-11-04T11:11:17.492Z,11.06
2016-11-04T11:12:17.206Z,10.73
2016-11-04T11:13:17.778Z,10.79
2016-11-04T11:14:17.428Z,10.7
2016-11-04T11:15:20.334Z,11
2016-11-04T11:16:17.346Z,10.95
2016-11-04T11:17:17.301Z,10.76
2016-11-04T11:18:17.396Z,10.83
2016-11-04T11:19:17.347Z,11.1
2016-11-04T11:20:17.412Z,11.09
2016-11-04T11:21:17.446Z,11.03
2016-11-04T11:22:17.534Z,11.12
2016-11-04T11:23:17.339Z,11.12
2016-11-04T11:24:17.399Z,11.13
2016-11-04T11:25:18.999Z,11.24
2016-11-04T11:26:17.455Z,11.34
2016-11-04T11:27:17.387Z,11.48
2016-11-04T11:28:17.289Z,11.6
2016-11-04T11:29:17.289Z,11.45
2016-11-04T11:30:17.390Z,11.42
2016-11-04T11:31:17.426Z,11.2
2016-11-04T11:32:17.277Z,11.1
2016-11-04T11:33:17.325Z,11.08
2016-11-04T11:34:17.337Z,11.16
2016-11-04T11:35:17.440Z,11.18
2016-11-04T11:36:17.362Z,11.38
2016-11-04T11:37:17.399Z,11.48
2016-11-04T11:38:17.342Z,11.6
2016-11-04T11:39:17.284Z,11.63
2016-11-04T11:40:17.387Z,11.51
2016-11-04T11:41:17.361Z,11.24
2016-11-04T11:42:17.565Z,11.33
2016-11-04T11:43:17.588Z,11.21
2016-11-04T11:44:17.415Z,11.18
2016-11-04T11:45:17.484Z,11.27
2016-11-04T11:46:17.583Z,11.64
2016-11-04T11:47:17.470Z,11.48
2016-11-04T11:48:17.334Z,11.45
2016-11-04T11:49:17.427Z,11.48
2016-11-04T11:50:17.461Z,11.48
2016-11-04T11:51:17.440Z,11.35
2016-11-04T11:52:17.426Z,11.48
2016-11-04T11:53:17.335Z,11.46
2016-11-04T11:54:17.830Z,11.2
2016-11-04T11:55:17.770Z,11.18
2016-11-04T11:56:17.560Z,11.52
2016-11-04T11:57:17.554Z,11.41
2016-11-04T11:58:17.448Z,11.43
2016-11-04T11:59:17.486Z,11.28
2016-11-04T12:00:17.370Z,11.23
2016-11-04T12:01:17.505Z,11.03
2016-11-04T12:02:17.444Z,11.09
2016-11-04T12:03:17.383Z,11.15
2016-11-04T12:04:17.455Z,11.27
2016-11-04T12:05:17.397Z,11.09
2016-11-04T12:06:17.372Z,10.9
2016-11-04T12:07:17.565Z,11.06
2016-11-04T12:08:17.610Z,11.2
2016-11-04T12:09:17.429Z,11.53
2016-11-04T12:10:17.527Z,11.27
2016-11-04T12:11:17.367Z,11.23
2016-11-04T12:12:17.430Z,11.27
2016-11-04T12:13:17.518Z,11.09
2016-11-04T12:14:17.466Z,11.2
2016-11-04T12:15:17.622Z,11.18
2016-11-04T12:16:17.527Z,11.23
2016-11-04T12:17:17.571Z,11.03
2016-11-04T12:18:17.460Z,11.03
2016-11-04T12:19:17.488Z,11.12
2016-11-04T12:20:17.394Z,11.08
2016-11-04T12:21:17.506Z,11.2
2016-11-04T12:22:17.474Z,11.21
2016-11-04T12:23:17.472Z,11.3
2016-11-04T12:24:17.603Z,11.27
2016-11-04T12:25:17.795Z,11.28
2016-11-04T12:26:17.528Z,11.33
2016-11-04T12:27:17.392Z,11.31
2016-11-04T12:28:17.425Z,11.49
2016-11-04T12:29:17.579Z,11.43
2016-11-04T12:30:17.603Z,11.2
2016-11-04T12:31:17.753Z,11.3
2016-11-04T12:32:17.579Z,11.08
2016-11-04T12:33:17.523Z,11.12
2016-11-04T12:34:17.611Z,11.52
2016-11-04T12:35:17.627Z,11.46
2016-11-04T12:36:17.519Z,11.38
2016-11-04T12:37:17.605Z,11.42
2016-11-04T12:38:17.513Z,11.41
2016-11-04T12:39:17.443Z,11.24
2016-11-04T12:40:17.573Z,11.28
2016-11-04T12:41:17.593Z,11.45
2016-11-04T12:42:17.671Z,11.42
2016-11-04T12:43:17.534Z,11.41
2016-11-04T12:44:17.518Z,11
2016-11-04T12:45:17.572Z,10.95
2016-11-04T12:46:17.804Z,11.1
2016-11-04T12:47:18.257Z,11.16
2016-11-04T12:48:19.707Z,11.24
2016-11-04T12:49:17.596Z,11.31
2016-11-04T12:50:17.651Z,11.27
2016-11-04T12:51:17.513Z,11.34
2016-11-04T12:52:17.595Z,11.39
2016-11-04T12:53:17.756Z,11.3
2016-11-04T12:54:17.576Z,11.2
2016-11-04T12:55:17.593Z,11.39
2016-11-04T12:56:17.724Z,11.28
2016-11-04T12:57:17.698Z,11.34
2016-11-04T12:58:17.507Z,11.23
2016-11-04T12:59:17.482Z,11.3
2016-11-04T13:00:17.984Z,11.39
2016-11-04T13:01:17.983Z,11.42
2016-11-04T13:02:18.226Z,11.45
2016-11-04T13:03:18.207Z,11.49
2016-11-04T13:04:18.313Z,11.41
2016-11-04T13:05:17.518Z,11.39
2016-11-04T13:06:17.596Z,11.31
2016-11-04T13:07:17.614Z,11.48
2016-11-04T13:08:17.624Z,11.45
2016-11-04T13:09:17.597Z,11.35
2016-11-04T13:10:17.532Z,11.24
2016-11-04T13:11:17.662Z,11.38
2016-11-04T13:12:17.612Z,11.31
2016-11-04T13:13:18.286Z,11.43
2016-11-04T13:14:17.882Z,11.53
2016-11-04T13:15:17.535Z,11.67